Time;durP1;ratioP1;P1;durP2;ratioP2;P2;SDS_P1;SDS_P2;PMS_P1;PMS_P2;Temp;Humidity;BMP_temperature;BMP_pressure;BME280_temperature;BME280_humidity;BME280_pressure;Samples;Min_cycle;Max_cycle;Signal;HPM_P1;HPM_P2
2022/12/04 00:01:53;;;;;;;5.50;1.63;;;;;;;;;;5073628;28;20067;-41
2022/12/04 00:04:18;;;;;;;1.05;0.95;;;;;;;;;;5072452;28;20097;-41
2022/12/04 00:06:44;;;;;;;2.72;1.27;;;;;;;;;;5071943;28;20040;-41
2022/12/04 00:09:09;;;;;;;1.20;1.10;;;;;;;;;;5073251;28;20016;-41
2022/12/04 00:11:34;;;;;;;2.10;1.50;;;;;;;;;;5073144;28;20074;-41
2022/12/04 00:14:00;;;;;;;2.33;1.45;;;;;;;;;;5073408;28;20096;-41
2022/12/04 00:16:28;;;;;;;1.27;1.15;;;;;;;;;;5073108;28;20090;-41
2022/12/04 00:18:54;;;;;;;3.08;1.80;;;;;;;;;;5073046;28;20021;-41
2022/12/04 00:21:19;;;;;;;1.77;1.45;;;;;;;;;;5073152;28;20075;-41
2022/12/04 00:23:45;;;;;;;1.65;1.55;;;;;;;;;;5072922;28;20378;-41
2022/12/04 00:26:14;;;;;;;1.55;1.15;;;;;;;;;;5073206;28;20123;-41
2022/12/04 00:28:41;;;;;;;2.58;1.45;;;;;;;;;;5073029;28;20137;-41
2022/12/04 00:31:07;;;;;;;2.15;1.05;;;;;;;;;;5072837;28;20032;-43
2022/12/04 00:33:33;;;;;;;2.00;1.52;;;;;;;;;;5072800;28;20032;-41
2022/12/04 00:36:00;;;;;;;1.77;1.25;;;;;;;;;;5072754;28;20036;-41
2022/12/04 00:38:25;;;;;;;3.67;0.95;;;;;;;;;;5072690;28;20103;-41
2022/12/04 00:40:51;;;;;;;1.45;1.10;;;;;;;;;;5072552;28;20120;-41
2022/12/04 00:43:17;;;;;;;1.70;1.40;;;;;;;;;;5072901;28;20107;-41
2022/12/04 00:45:42;;;;;;;0.73;0.70;;;;;;;;;;5072717;28;20041;-41
2022/12/04 00:48:07;;;;;;;2.35;1.55;;;;;;;;;;5072495;28;20082;-41
2022/12/04 00:50:33;;;;;;;1.75;1.27;;;;;;;;;;5072359;28;20047;-41
2022/12/04 00:52:59;;;;;;;1.08;1.05;;;;;;;;;;5072762;28;20103;-41
2022/12/04 00:55:24;;;;;;;1.75;1.30;;;;;;;;;;5072316;28;20099;-41
2022/12/04 00:57:50;;;;;;;1.08;0.90;;;;;;;;;;5072350;28;20035;-42
2022/12/04 01:00:15;;;;;;;1.55;1.15;;;;;;;;;;5072484;28;20047;-41
2022/12/04 01:02:40;;;;;;;2.35;1.40;;;;;;;;;;5072251;28;20382;-41
2022/12/04 01:05:06;;;;;;;1.55;1.45;;;;;;;;;;5072159;28;20127;-41
2022/12/04 01:07:31;;;;;;;1.77;1.45;;;;;;;;;;5072140;28;20081;-41
2022/12/04 01:09:56;;;;;;;2.15;1.35;;;;;;;;;;5072422;28;20382;-41
2022/12/04 01:12:22;;;;;;;2.97;1.65;;;;;;;;;;5072031;28;20028;-41
2022/12/04 01:14:47;;;;;;;1.92;1.52;;;;;;;;;;5071997;28;20177;-41
2022/12/04 01:17:13;;;;;;;1.00;1.00;;;;;;;;;;5072308;28;20029;-42
2022/12/04 01:19:38;;;;;;;1.00;0.32;;;;;;;;;;5071771;28;20070;-41
2022/12/04 01:22:04;;;;;;;1.58;1.48;;;;;;;;;;5072231;28;20017;-41
2022/12/04 01:24:29;;;;;;;0.77;0.75;;;;;;;;;;5072290;28;20040;-41
2022/12/04 01:26:54;;;;;;;1.65;1.30;;;;;;;;;;5071586;28;20107;-41
2022/12/04 01:29:20;;;;;;;2.25;1.38;;;;;;;;;;5071868;28;20737;-41
2022/12/04 01:31:45;;;;;;;0.93;0.88;;;;;;;;;;5071926;28;20032;-41
2022/12/04 01:34:10;;;;;;;1.73;1.25;;;;;;;;;;5072004;28;20025;-41
2022/12/04 01:36:36;;;;;;;4.00;1.58;;;;;;;;;;5071927;28;20455;-41
2022/12/04 01:39:01;;;;;;;1.15;0.98;;;;;;;;;;5071759;28;20390;-41
2022/12/04 01:41:28;;;;;;;1.73;1.60;;;;;;;;;;5071899;28;20024;-41
2022/12/04 01:44:10;;;;;;;1.77;1.50;;;;;;;;;;5071810;28;20433;-41
2022/12/04 01:46:36;;;;;;;1.90;1.25;;;;;;;;;;5071471;28;20048;-42
2022/12/04 01:49:01;;;;;;;3.25;1.20;;;;;;;;;;5071365;28;20038;-41
2022/12/04 01:51:38;;;;;;;1.63;1.52;;;;;;;;;;5071815;28;20047;-43
2022/12/04 01:54:06;;;;;;;1.35;1.13;;;;;;;;;;5071365;28;20388;-41
2022/12/04 01:56:33;;;;;;;1.42;1.13;;;;;;;;;;5071751;28;20533;-41
2022/12/04 01:59:00;;;;;;;2.13;1.23;;;;;;;;;;5071394;28;20120;-41
2022/12/04 02:01:28;;;;;;;0.70;0.50;;;;;;;;;;5071342;28;20554;-41
2022/12/04 02:03:53;;;;;;;1.80;0.93;;;;;;;;;;5071607;28;20115;-41
2022/12/04 02:06:19;;;;;;;0.50;0.50;;;;;;;;;;5071225;28;20131;-41
2022/12/04 02:08:44;;;;;;;1.83;0.93;;;;;;;;;;5070672;28;20036;-41
2022/12/04 02:11:09;;;;;;;1.48;1.05;;;;;;;;;;5071354;28;20030;-41
2022/12/04 02:13:47;;;;;;;1.88;1.00;;;;;;;;;;5071141;28;20034;-45
2022/12/04 02:16:36;;;;;;;1.30;1.20;;;;;;;;;;5071584;28;20086;-41
2022/12/04 02:19:17;;;;;;;0.52;0.52;;;;;;;;;;5065579;28;20048;-41
2022/12/04 02:21:46;;;;;;;1.85;1.00;;;;;;;;;;5071386;28;20054;-41
2022/12/04 02:24:14;;;;;;;2.13;1.30;;;;;;;;;;5071394;28;20078;-41
2022/12/04 02:26:45;;;;;;;0.60;0.60;;;;;;;;;;5071241;28;20040;-41
2022/12/04 02:29:19;;;;;;;2.50;1.58;;;;;;;;;;5071395;28;20115;-41
2022/12/04 02:32:05;;;;;;;0.70;0.70;;;;;;;;;;5070972;28;20095;-41
2022/12/04 02:34:50;;;;;;;0.82;0.60;;;;;;;;;;5070678;28;20114;-41
2022/12/04 02:37:17;;;;;;;1.23;1.02;;;;;;;;;;5070651;28;20045;-41
2022/12/04 02:39:50;;;;;;;2.90;2.05;;;;;;;;;;5070924;28;20044;-41
2022/12/04 02:42:21;;;;;;;1.30;1.20;;;;;;;;;;5071012;28;20032;-41
2022/12/04 02:44:48;;;;;;;1.75;1.25;;;;;;;;;;5069932;28;20078;-42
2022/12/04 02:47:17;;;;;;;1.40;1.30;;;;;;;;;;5070828;28;20486;-42
2022/12/04 02:49:47;;;;;;;0.85;0.82;;;;;;;;;;5070909;28;20023;-41
2022/12/04 02:52:15;;;;;;;1.08;0.90;;;;;;;;;;5070801;28;20131;-41
2022/12/04 02:54:42;;;;;;;1.25;1.17;;;;;;;;;;5070622;28;20395;-41
2022/12/04 02:57:10;;;;;;;0.95;0.95;;;;;;;;;;5069563;28;20024;-42
2022/12/04 02:59:38;;;;;;;1.52;1.23;;;;;;;;;;5070752;28;20086;-42
2022/12/04 03:02:09;;;;;;;1.52;1.40;;;;;;;;;;5071140;28;20040;-41
2022/12/04 03:04:35;;;;;;;1.40;0.90;;;;;;;;;;5071020;28;20132;-41
2022/12/04 03:07:05;;;;;;;1.17;1.00;;;;;;;;;;5070692;28;20605;-43
2022/12/04 03:09:41;;;;;;;1.15;0.90;;;;;;;;;;5070763;28;20035;-41
2022/12/04 03:12:11;;;;;;;1.00;0.70;;;;;;;;;;5070693;28;20437;-41
2022/12/04 03:14:39;;;;;;;1.08;0.90;;;;;;;;;;5070810;28;20136;-41
2022/12/04 03:17:09;;;;;;;1.67;1.55;;;;;;;;;;5070909;28;20351;-41
2022/12/04 03:19:43;;;;;;;1.80;1.35;;;;;;;;;;5070755;28;20396;-41
2022/12/04 03:22:12;;;;;;;6.85;1.40;;;;;;;;;;5072321;28;20031;-41
2022/12/04 03:24:57;;;;;;;0.95;0.80;;;;;;;;;;5074375;28;20024;-41
2022/12/04 03:27:22;;;;;;;1.25;1.08;;;;;;;;;;5073634;28;20052;-42
2022/12/04 03:30:02;;;;;;;0.60;0.60;;;;;;;;;;5073917;28;20539;-42
2022/12/04 03:32:31;;;;;;;0.77;0.52;;;;;;;;;;5074368;28;20029;-41
2022/12/04 03:34:58;;;;;;;0.75;0.75;;;;;;;;;;5074102;28;20025;-41
2022/12/04 03:37:27;;;;;;;1.77;1.00;;;;;;;;;;5074301;28;20426;-42
2022/12/04 03:40:21;;;;;;;0.60;0.60;;;;;;;;;;5074018;28;20133;-42
2022/12/04 03:42:50;;;;;;;0.28;0.28;;;;;;;;;;5064449;28;20036;-41
2022/12/04 03:45:21;;;;;;;0.95;0.60;;;;;;;;;;5073991;28;20020;-41
2022/12/04 03:47:55;;;;;;;0.93;0.93;;;;;;;;;;5073651;28;20036;-42
2022/12/04 03:50:36;;;;;;;0.60;0.60;;;;;;;;;;5073887;28;20421;-41
2022/12/04 03:53:13;;;;;;;0.70;0.70;;;;;;;;;;5073995;28;20040;-42
2022/12/04 03:55:39;;;;;;;0.70;0.70;;;;;;;;;;5073847;28;20097;-42
2022/12/04 03:58:07;;;;;;;0.98;0.80;;;;;;;;;;5073890;28;20119;-42
2022/12/04 04:00:35;;;;;;;0.68;0.68;;;;;;;;;;5073808;28;20039;-41
2022/12/04 04:03:12;;;;;;;0.60;0.60;;;;;;;;;;5073743;28;20024;-41
2022/12/04 04:05:40;;;;;;;0.60;0.60;;;;;;;;;;5073578;28;20047;-42
2022/12/04 04:08:25;;;;;;;0.98;0.60;;;;;;;;;;5073308;28;20104;-41
2022/12/04 04:10:52;;;;;;;0.70;0.70;;;;;;;;;;5073264;28;20036;-41
2022/12/04 04:24:34;;;;;;;0.60;0.60;;;;;;;;;;5073104;28;20032;-42
2022/12/04 04:27:00;;;;;;;0.60;0.60;;;;;;;;;;5073026;28;20387;-41
2022/12/04 04:29:26;;;;;;;1.15;0.90;;;;;;;;;;5072961;28;20024;-41
2022/12/04 04:32:01;;;;;;;0.45;0.45;;;;;;;;;;5072370;28;20081;-41
2022/12/04 04:34:42;;;;;;;0.82;0.77;;;;;;;;;;5073115;28;20029;-41
2022/12/04 04:37:07;;;;;;;0.90;0.90;;;;;;;;;;5073033;28;20037;-41
2022/12/04 04:39:38;;;;;;;1.88;0.77;;;;;;;;;;5072732;28;20025;-41
2022/12/04 04:42:12;;;;;;;0.68;0.65;;;;;;;;;;5072662;28;20029;-41
2022/12/04 04:44:55;;;;;;;0.52;0.52;;;;;;;;;;5072871;28;20640;-41
2022/12/04 04:47:27;;;;;;;0.30;0.30;;;;;;;;;;5072771;28;20080;-41
2022/12/04 04:49:54;;;;;;;0.60;0.60;;;;;;;;;;5072506;28;20028;-41
2022/12/04 04:52:20;;;;;;;1.38;0.77;;;;;;;;;;5072480;28;20067;-42
2022/12/04 04:54:46;;;;;;;1.13;0.50;;;;;;;;;;5072222;28;20049;-41
2022/12/04 04:57:11;;;;;;;0.73;0.73;;;;;;;;;;5072446;28;20035;-42
2022/12/04 04:59:36;;;;;;;1.63;0.77;;;;;;;;;;5072206;28;20036;-41
2022/12/04 05:02:02;;;;;;;0.57;0.57;;;;;;;;;;5072395;28;20024;-41
2022/12/04 05:04:27;;;;;;;0.30;0.30;;;;;;;;;;5072330;28;20028;-41
2022/12/04 05:06:53;;;;;;;0.70;0.70;;;;;;;;;;5072346;28;20044;-42
2022/12/04 05:09:18;;;;;;;0.60;0.60;;;;;;;;;;5072389;28;20032;-41
2022/12/04 05:11:43;;;;;;;1.48;0.82;;;;;;;;;;5072121;28;20502;-41
2022/12/04 05:14:09;;;;;;;0.80;0.80;;;;;;;;;;5070796;28;20069;-41
2022/12/04 05:16:34;;;;;;;0.30;0.30;;;;;;;;;;5072274;28;20412;-41
2022/12/04 05:21:43;;;;;;;1.17;0.80;;;;;;;;;;5071779;28;20590;-41
2022/12/04 05:24:09;;;;;;;0.60;0.60;;;;;;;;;;5072234;28;20104;-41
2022/12/04 05:26:34;;;;;;;0.68;0.68;;;;;;;;;;5071897;28;20094;-41
2022/12/04 05:28:59;;;;;;;0.70;0.70;;;;;;;;;;5071886;28;20081;-41
2022/12/04 05:31:25;;;;;;;0.93;0.85;;;;;;;;;;5072044;28;20024;-41
2022/12/04 05:33:50;;;;;;;1.25;1.10;;;;;;;;;;5071988;28;20101;-41
2022/12/04 05:36:16;;;;;;;0.38;0.38;;;;;;;;;;5071969;28;20177;-41
2022/12/04 05:38:41;;;;;;;1.63;1.33;;;;;;;;;;5071627;28;20764;-41
2022/12/04 05:41:06;;;;;;;1.35;0.93;;;;;;;;;;5071627;28;20024;-41
2022/12/04 05:43:32;;;;;;;1.33;1.23;;;;;;;;;;5070889;28;20035;-41
2022/12/04 05:46:04;;;;;;;1.05;0.95;;;;;;;;;;5071728;28;20398;-42
2022/12/04 05:48:30;;;;;;;1.90;1.60;;;;;;;;;;5071594;28;20043;-41
2022/12/04 05:50:56;;;;;;;0.95;0.80;;;;;;;;;;5071636;28;20024;-41
2022/12/04 05:53:21;;;;;;;1.67;1.30;;;;;;;;;;5071365;28;20043;-41
2022/12/04 05:55:56;;;;;;;1.65;1.48;;;;;;;;;;5071493;28;20355;-41
2022/12/04 05:58:22;;;;;;;1.02;0.93;;;;;;;;;;5071603;28;20130;-41
2022/12/04 06:00:47;;;;;;;2.42;1.58;;;;;;;;;;5071674;28;20518;-41
2022/12/04 06:03:13;;;;;;;1.73;1.60;;;;;;;;;;5071403;28;20029;-41
2022/12/04 06:05:38;;;;;;;2.08;1.70;;;;;;;;;;5071523;28;20035;-41
2022/12/04 06:08:03;;;;;;;2.10;1.73;;;;;;;;;;5070107;28;20540;-41
2022/12/04 06:10:29;;;;;;;2.03;1.63;;;;;;;;;;5070022;28;20044;-41
2022/12/04 06:12:56;;;;;;;2.40;2.20;;;;;;;;;;5071522;28;20028;-42
2022/12/04 06:15:22;;;;;;;2.40;1.38;;;;;;;;;;5071324;28;20020;-41
2022/12/04 06:17:47;;;;;;;2.13;0.98;;;;;;;;;;5071063;28;20551;-41
2022/12/04 06:20:13;;;;;;;1.67;1.38;;;;;;;;;;5071242;28;20048;-41
2022/12/04 06:22:38;;;;;;;0.65;0.65;;;;;;;;;;5071362;28;20024;-42
2022/12/04 06:25:04;;;;;;;2.25;2.00;;;;;;;;;;5071378;28;20032;-41
2022/12/04 06:27:29;;;;;;;2.00;1.63;;;;;;;;;;5071096;28;20048;-41
2022/12/04 06:29:54;;;;;;;2.47;1.90;;;;;;;;;;5071315;28;20021;-41
2022/12/04 06:32:20;;;;;;;3.35;2.03;;;;;;;;;;5071399;28;20070;-41
2022/12/04 06:34:45;;;;;;;2.35;2.15;;;;;;;;;;5071034;28;20013;-41
2022/12/04 06:37:11;;;;;;;2.58;2.33;;;;;;;;;;5071175;28;20613;-41
2022/12/04 06:39:36;;;;;;;2.40;1.98;;;;;;;;;;5071009;28;20411;-41
2022/12/04 06:42:02;;;;;;;2.28;1.50;;;;;;;;;;5070976;28;20040;-41
2022/12/04 06:44:27;;;;;;;5.25;1.95;;;;;;;;;;5071344;28;20588;-41
2022/12/04 06:46:52;;;;;;;1.83;1.23;;;;;;;;;;5070892;28;20490;-41
2022/12/04 06:49:21;;;;;;;2.47;1.48;;;;;;;;;;5070880;28;20020;-41
2022/12/04 06:51:46;;;;;;;2.63;2.22;;;;;;;;;;5069619;28;20044;-41
2022/12/04 06:54:12;;;;;;;2.88;2.40;;;;;;;;;;5070656;28;20045;-41
2022/12/04 06:56:37;;;;;;;2.60;1.85;;;;;;;;;;5074789;28;20032;-41
2022/12/04 06:59:03;;;;;;;2.75;2.10;;;;;;;;;;5074591;28;20399;-42
2022/12/04 07:01:29;;;;;;;2.67;1.92;;;;;;;;;;5074558;28;20082;-44
2022/12/04 07:03:55;;;;;;;2.28;2.03;;;;;;;;;;5074869;28;20025;-41
2022/12/04 07:06:25;;;;;;;2.72;1.83;;;;;;;;;;5074484;28;20047;-41
2022/12/04 07:08:52;;;;;;;2.47;2.20;;;;;;;;;;5074389;28;20029;-41
2022/12/04 07:11:17;;;;;;;4.78;2.40;;;;;;;;;;5074740;28;20051;-41
2022/12/04 07:13:43;;;;;;;2.53;1.80;;;;;;;;;;5074362;28;20463;-41
2022/12/04 07:16:11;;;;;;;2.22;2.03;;;;;;;;;;5074363;28;20043;-41
2022/12/04 07:18:37;;;;;;;2.53;2.33;;;;;;;;;;5074494;28;20028;-41
2022/12/04 07:21:06;;;;;;;1.98;1.77;;;;;;;;;;5072960;28;20474;-41
2022/12/04 07:23:32;;;;;;;3.05;2.20;;;;;;;;;;5072911;28;20498;-42
2022/12/04 07:26:02;;;;;;;1.88;1.70;;;;;;;;;;5074261;28;20044;-42
2022/12/04 07:28:27;;;;;;;0.68;0.60;;;;;;;;;;5074448;28;20020;-41
2022/12/04 07:30:53;;;;;;;3.10;1.90;;;;;;;;;;5073953;28;20210;-41
2022/12/04 07:33:18;;;;;;;3.40;2.25;;;;;;;;;;5074345;28;20020;-41
2022/12/04 07:35:43;;;;;;;3.58;2.67;;;;;;;;;;5074230;28;20471;-41
2022/12/04 07:38:09;;;;;;;2.75;2.47;;;;;;;;;;5073840;28;20032;-41
2022/12/04 07:40:36;;;;;;;0.90;0.40;;;;;;;;;;5074012;28;20032;-41
2022/12/04 07:43:01;;;;;;;2.17;1.65;;;;;;;;;;5073974;28;20017;-41
2022/12/04 07:45:26;;;;;;;3.08;2.53;;;;;;;;;;5073698;28;20039;-41
2022/12/04 07:47:52;;;;;;;3.85;2.55;;;;;;;;;;5073958;28;20119;-41
2022/12/04 07:50:17;;;;;;;3.63;2.15;;;;;;;;;;5073645;28;20107;-41
2022/12/04 07:52:43;;;;;;;2.53;2.15;;;;;;;;;;5073642;28;20096;-41
2022/12/04 07:55:08;;;;;;;3.22;2.25;;;;;;;;;;5073514;28;20044;-41
2022/12/04 07:57:33;;;;;;;1.95;1.63;;;;;;;;;;5073516;28;20033;-41
2022/12/04 07:59:59;;;;;;;6.32;3.97;;;;;;;;;;5073439;28;20063;-42
2022/12/04 08:02:25;;;;;;;4.28;2.70;;;;;;;;;;5073462;28;20027;-41
2022/12/04 08:04:50;;;;;;;2.17;1.95;;;;;;;;;;5073710;28;20032;-41
2022/12/04 08:07:16;;;;;;;1.45;1.33;;;;;;;;;;5072803;28;20529;-41
2022/12/04 08:09:42;;;;;;;1.90;1.70;;;;;;;;;;5073532;28;20032;-41
2022/12/04 08:12:07;;;;;;;4.25;3.03;;;;;;;;;;5073625;28;20013;-42
2022/12/04 08:14:33;;;;;;;4.22;2.97;;;;;;;;;;5073329;28;20434;-41
2022/12/04 08:16:58;;;;;;;1.65;1.55;;;;;;;;;;5073441;28;20017;-41
2022/12/04 08:19:23;;;;;;;2.28;1.95;;;;;;;;;;5073351;28;20036;-41
2022/12/04 08:21:49;;;;;;;4.65;3.28;;;;;;;;;;5073087;28;20490;-41
2022/12/04 08:24:14;;;;;;;3.10;2.40;;;;;;;;;;5073411;28;20032;-41
2022/12/04 08:26:40;;;;;;;3.67;2.45;;;;;;;;;;5072677;28;20059;-42
2022/12/04 08:29:05;;;;;;;3.53;2.65;;;;;;;;;;5073252;28;20035;-41
2022/12/04 08:31:32;;;;;;;5.05;3.42;;;;;;;;;;5073008;28;20397;-42
2022/12/04 08:33:58;;;;;;;3.08;2.25;;;;;;;;;;5072983;28;20059;-41
2022/12/04 08:36:24;;;;;;;4.80;3.45;;;;;;;;;;5072934;28;20471;-41
2022/12/04 08:38:49;;;;;;;5.45;3.22;;;;;;;;;;5072993;28;20028;-41
2022/12/04 08:41:16;;;;;;;5.78;3.22;;;;;;;;;;5073039;28;20020;-41
2022/12/04 08:43:42;;;;;;;4.47;3.40;;;;;;;;;;5072977;28;20090;-42
2022/12/04 08:46:09;;;;;;;5.13;2.97;;;;;;;;;;5072864;28;20028;-41
2022/12/04 08:48:34;;;;;;;5.10;3.25;;;;;;;;;;5072499;28;20559;-41
2022/12/04 08:51:00;;;;;;;0.82;0.82;;;;;;;;;;5072804;28;20100;-41
2022/12/04 08:53:26;;;;;;;5.63;3.65;;;;;;;;;;5072308;28;20067;-41
2022/12/04 08:55:52;;;;;;;4.07;2.35;;;;;;;;;;5072419;28;20032;-41
2022/12/04 08:58:20;;;;;;;6.35;3.50;;;;;;;;;;5072601;28;20385;-42
2022/12/04 09:00:45;;;;;;;6.55;3.75;;;;;;;;;;5072242;28;20024;-41
2022/12/04 09:03:15;;;;;;;4.97;2.72;;;;;;;;;;5072276;28;20078;-41
2022/12/04 09:05:41;;;;;;;3.97;3.03;;;;;;;;;;5072366;28;20085;-41
2022/12/04 09:08:06;;;;;;;4.93;2.60;;;;;;;;;;5072446;28;20032;-42
2022/12/04 09:10:35;;;;;;;3.88;2.67;;;;;;;;;;5072391;28;20025;-41
2022/12/04 09:13:00;;;;;;;2.80;2.50;;;;;;;;;;5072020;28;20035;-41
2022/12/04 09:15:26;;;;;;;4.88;2.90;;;;;;;;;;5072021;28;20024;-41
2022/12/04 09:17:51;;;;;;;3.83;3.03;;;;;;;;;;5072143;28;20024;-42
2022/12/04 09:20:17;;;;;;;5.43;2.42;;;;;;;;;;5072222;28;20502;-41
2022/12/04 09:22:43;;;;;;;3.72;2.03;;;;;;;;;;5071817;28;20107;-41
2022/12/04 09:25:08;;;;;;;1.88;1.75;;;;;;;;;;5071898;28;20021;-42
2022/12/04 09:27:37;;;;;;;2.13;1.95;;;;;;;;;;5071783;28;20458;-42
2022/12/04 09:30:03;;;;;;;2.75;2.10;;;;;;;;;;5071733;28;20111;-41
2022/12/04 09:32:29;;;;;;;3.65;2.05;;;;;;;;;;5071830;28;20381;-41
2022/12/04 09:34:54;;;;;;;3.72;2.58;;;;;;;;;;5071913;28;20020;-42
2022/12/04 09:37:19;;;;;;;2.72;2.03;;;;;;;;;;5071777;28;20536;-41
2022/12/04 09:39:45;;;;;;;3.30;2.00;;;;;;;;;;5071576;28;20467;-42
2022/12/04 09:42:26;;;;;;;3.30;3.00;;;;;;;;;;5071559;28;20031;-41
2022/12/04 09:44:55;;;;;;;2.63;1.95;;;;;;;;;;5071514;28;20411;-41
2022/12/04 09:47:30;;;;;;;5.40;2.67;;;;;;;;;;5071584;28;20028;-42
2022/12/04 09:49:59;;;;;;;1.73;1.58;;;;;;;;;;5071787;28;20395;-42
2022/12/04 09:52:25;;;;;;;2.35;1.70;;;;;;;;;;5071526;28;20758;-41
2022/12/04 09:54:51;;;;;;;2.25;1.80;;;;;;;;;;5071318;28;20102;-41
2022/12/04 09:57:37;;;;;;;2.80;1.45;;;;;;;;;;5070130;28;20040;-41
2022/12/04 10:00:05;;;;;;;3.97;1.83;;;;;;;;;;5071188;28;20059;-42
2022/12/04 10:02:37;;;;;;;1.73;1.63;;;;;;;;;;5071483;28;20476;-41
2022/12/04 10:05:04;;;;;;;3.50;2.53;;;;;;;;;;5070063;28;20042;-42
2022/12/04 10:07:39;;;;;;;2.17;1.77;;;;;;;;;;5071200;28;20038;-42
2022/12/04 10:10:05;;;;;;;1.73;1.25;;;;;;;;;;5071323;28;20478;-42
2022/12/04 10:12:30;;;;;;;3.58;1.05;;;;;;;;;;5071207;28;20025;-41
2022/12/04 10:15:31;;;;;;;1.95;1.55;;;;;;;;;;5071206;28;20059;-42
2022/12/04 10:18:22;;;;;;;1.48;1.38;;;;;;;;;;5028843;28;20037;-42
2022/12/04 10:20:50;;;;;;;1.38;1.27;;;;;;;;;;5069219;28;20041;-41
2022/12/04 10:23:19;;;;;;;2.63;1.63;;;;;;;;;;5071510;28;20040;-42
2022/12/04 10:25:45;;;;;;;1.23;1.10;;;;;;;;;;5071116;28;20113;-41
2022/12/04 10:28:19;;;;;;;1.58;1.45;;;;;;;;;;5071148;28;20430;-41
2022/12/04 10:30:46;;;;;;;2.38;1.42;;;;;;;;;;5073309;28;20030;-42
2022/12/04 10:33:11;;;;;;;1.83;1.20;;;;;;;;;;5075282;28;20025;-41
2022/12/04 10:35:40;;;;;;;2.40;1.17;;;;;;;;;;5075148;28;20028;-42
2022/12/04 10:38:09;;;;;;;1.35;1.25;;;;;;;;;;5075014;28;20012;-42
2022/12/04 10:40:41;;;;;;;0.73;0.73;;;;;;;;;;5075090;28;20032;-41
2022/12/04 10:43:22;;;;;;;1.85;1.42;;;;;;;;;;5074812;28;20123;-42
2022/12/04 10:45:48;;;;;;;1.77;1.50;;;;;;;;;;5074877;28;20033;-42
2022/12/04 10:48:22;;;;;;;3.53;1.73;;;;;;;;;;5075075;28;20115;-41
2022/12/04 10:50:48;;;;;;;1.73;1.63;;;;;;;;;;5074771;28;20467;-41
2022/12/04 10:53:14;;;;;;;0.30;0.30;;;;;;;;;;5074841;28;20029;-42
2022/12/04 10:55:39;;;;;;;0.82;0.80;;;;;;;;;;5074850;28;20036;-42
2022/12/04 10:58:16;;;;;;;1.05;1.02;;;;;;;;;;5073380;28;20498;-42
2022/12/04 11:00:44;;;;;;;1.52;1.20;;;;;;;;;;5074697;28;20041;-42
2022/12/04 11:03:23;;;;;;;1.17;1.08;;;;;;;;;;5074617;28;20471;-42
2022/12/04 11:05:58;;;;;;;4.60;1.38;;;;;;;;;;5074502;28;20074;-41
2022/12/04 11:08:47;;;;;;;3.78;2.95;;;;;;;;;;5074448;28;20078;-41
2022/12/04 11:11:14;;;;;;;1.75;1.65;;;;;;;;;;5074422;28;20116;-41
2022/12/04 11:13:39;;;;;;;2.17;1.90;;;;;;;;;;5074479;28;20360;-41
2022/12/04 11:16:06;;;;;;;2.78;2.30;;;;;;;;;;5074324;28;20112;-41
2022/12/04 11:18:33;;;;;;;2.97;1.60;;;;;;;;;;5074496;28;20031;-41
2022/12/04 11:21:03;;;;;;;1.75;1.42;;;;;;;;;;5074226;28;20489;-41
2022/12/04 11:23:32;;;;;;;2.70;1.90;;;;;;;;;;5074553;28;20032;-41
2022/12/04 11:25:58;;;;;;;2.97;2.55;;;;;;;;;;5074047;28;20504;-41
2022/12/04 11:28:25;;;;;;;3.45;2.75;;;;;;;;;;5074154;28;20052;-42
2022/12/04 11:30:55;;;;;;;2.63;1.60;;;;;;;;;;5074200;28;20060;-41
2022/12/04 11:33:43;;;;;;;2.00;1.65;;;;;;;;;;5074143;28;20029;-41
2022/12/04 11:36:29;;;;;;;1.25;0.95;;;;;;;;;;5068455;28;20040;-41
2022/12/04 11:39:10;;;;;;;2.47;1.88;;;;;;;;;;5073724;28;20039;-41
2022/12/04 11:41:35;;;;;;;1.63;1.50;;;;;;;;;;5072763;28;20055;-41
2022/12/04 11:44:01;;;;;;;1.58;1.20;;;;;;;;;;5055880;28;20048;-41
2022/12/04 11:46:28;;;;;;;2.30;1.75;;;;;;;;;;5073731;28;20086;-41
2022/12/04 11:48:54;;;;;;;2.58;1.83;;;;;;;;;;5073622;28;20028;-41
2022/12/04 11:51:27;;;;;;;1.10;1.10;;;;;;;;;;5073753;28;20479;-42
2022/12/04 11:54:05;;;;;;;3.78;1.60;;;;;;;;;;5073606;28;20410;-41
2022/12/04 11:56:33;;;;;;;2.20;1.20;;;;;;;;;;5073740;28;20028;-41
2022/12/04 11:58:58;;;;;;;1.70;1.40;;;;;;;;;;5073538;28;20401;-41
2022/12/04 12:01:42;;;;;;;3.97;1.63;;;;;;;;;;5073746;28;20170;-41
2022/12/04 12:04:14;;;;;;;3.13;2.38;;;;;;;;;;5073675;28;20368;-41
2022/12/04 12:06:53;;;;;;;1.50;1.38;;;;;;;;;;5073428;28;20093;-41
2022/12/04 12:09:33;;;;;;;1.63;1.35;;;;;;;;;;5073421;28;20025;-42
2022/12/04 12:12:05;;;;;;;1.13;1.05;;;;;;;;;;5072370;28;20052;-42
2022/12/04 12:14:39;;;;;;;1.85;0.98;;;;;;;;;;5073310;28;20029;-41
2022/12/04 12:17:23;;;;;;;1.90;1.20;;;;;;;;;;5073255;28;20031;-41
2022/12/04 12:19:58;;;;;;;3.65;0.68;;;;;;;;;;5071878;28;20036;-41
2022/12/04 12:22:26;;;;;;;0.60;0.60;;;;;;;;;;5073207;28;20079;-41
2022/12/04 12:25:17;;;;;;;2.47;1.20;;;;;;;;;;5073107;28;20063;-41
2022/12/04 12:27:57;;;;;;;1.10;1.00;;;;;;;;;;5073208;28;20102;-41
2022/12/04 12:30:23;;;;;;;1.55;1.30;;;;;;;;;;5073050;28;20036;-41
2022/12/04 12:32:49;;;;;;;2.67;1.20;;;;;;;;;;5072835;28;20116;-41
2022/12/04 12:35:18;;;;;;;1.40;1.00;;;;;;;;;;5072966;28;20111;-41
2022/12/04 12:37:47;;;;;;;1.95;1.30;;;;;;;;;;5072860;28;20013;-41
2022/12/04 12:40:13;;;;;;;1.80;1.25;;;;;;;;;;5072830;28;20490;-41
2022/12/04 12:43:04;;;;;;;2.63;1.73;;;;;;;;;;5073031;28;20032;-41
2022/12/04 12:45:39;;;;;;;1.65;1.23;;;;;;;;;;5072973;28;20033;-41
2022/12/04 12:48:23;;;;;;;2.10;1.27;;;;;;;;;;5072450;28;20123;-41
2022/12/04 12:50:51;;;;;;;1.25;1.00;;;;;;;;;;5072594;28;20031;-41
2022/12/04 12:53:20;;;;;;;0.98;0.75;;;;;;;;;;5072024;28;20121;-41
2022/12/04 12:56:05;;;;;;;2.08;1.23;;;;;;;;;;5072511;28;20379;-42
2022/12/04 12:58:33;;;;;;;1.40;1.30;;;;;;;;;;5072365;28;20032;-41
2022/12/04 13:01:03;;;;;;;1.25;0.95;;;;;;;;;;5072411;28;20028;-41
2022/12/04 13:03:48;;;;;;;1.15;1.08;;;;;;;;;;5072311;28;20099;-42
2022/12/04 13:06:17;;;;;;;1.48;1.25;;;;;;;;;;5072176;28;20032;-41
2022/12/04 13:08:47;;;;;;;1.55;1.17;;;;;;;;;;5072228;28;20024;-42
2022/12/04 13:11:18;;;;;;;1.60;1.45;;;;;;;;;;5072192;28;20028;-42
2022/12/04 13:13:53;;;;;;;1.48;1.30;;;;;;;;;;5071165;28;20039;-41
2022/12/04 13:16:19;;;;;;;2.78;1.20;;;;;;;;;;5072116;28;20517;-42
2022/12/04 13:18:54;;;;;;;2.17;1.38;;;;;;;;;;5072203;28;20055;-41
2022/12/04 13:21:42;;;;;;;1.10;1.00;;;;;;;;;;5072076;28;20037;-41
2022/12/04 13:24:40;;;;;;;2.38;1.20;;;;;;;;;;5052137;28;20086;-41
2022/12/04 13:27:06;;;;;;;1.27;1.00;;;;;;;;;;5048645;28;20059;-41
2022/12/04 13:29:52;;;;;;;1.58;1.15;;;;;;;;;;5072103;28;20028;-41
2022/12/04 13:32:32;;;;;;;1.20;1.10;;;;;;;;;;5070432;28;20041;-41
2022/12/04 13:35:03;;;;;;;1.67;1.45;;;;;;;;;;5071703;28;20592;-41
2022/12/04 13:37:50;;;;;;;1.15;1.08;;;;;;;;;;5071767;28;20043;-41
2022/12/04 13:40:27;;;;;;;1.60;1.13;;;;;;;;;;5071625;28;20035;-42
2022/12/04 13:43:05;;;;;;;1.73;1.40;;;;;;;;;;5070439;28;20036;-42
2022/12/04 13:45:32;;;;;;;1.27;1.17;;;;;;;;;;5071631;28;20035;-41
2022/12/04 13:48:00;;;;;;;0.77;0.77;;;;;;;;;;5071683;28;20032;-42
2022/12/04 13:50:31;;;;;;;1.50;0.88;;;;;;;;;;5071794;28;20036;-41
2022/12/04 13:52:56;;;;;;;4.47;0.93;;;;;;;;;;5071547;28;20025;-42
2022/12/04 13:55:23;;;;;;;1.40;0.98;;;;;;;;;;5071276;28;20143;-41
2022/12/04 13:57:53;;;;;;;1.02;0.93;;;;;;;;;;5071415;28;20103;-41
2022/12/04 14:00:24;;;;;;;1.00;1.00;;;;;;;;;;5071410;28;20128;-41
2022/12/04 14:02:51;;;;;;;0.70;0.68;;;;;;;;;;5071343;28;20070;-42
2022/12/04 14:05:24;;;;;;;1.08;1.00;;;;;;;;;;5052781;28;20028;-42
2022/12/04 14:08:16;;;;;;;0.95;0.88;;;;;;;;;;5071248;28;20037;-42
2022/12/04 14:10:43;;;;;;;1.35;1.13;;;;;;;;;;5069246;28;20040;-41
2022/12/04 14:13:12;;;;;;;2.75;1.05;;;;;;;;;;5071352;28;20032;-41
2022/12/04 14:15:38;;;;;;;1.90;1.40;;;;;;;;;;5069963;28;20049;-41
2022/12/04 14:18:04;;;;;;;1.63;1.00;;;;;;;;;;5071255;28;20021;-41
2022/12/04 14:20:31;;;;;;;2.38;2.05;;;;;;;;;;5071331;28;20047;-41
2022/12/04 14:23:25;;;;;;;1.13;1.00;;;;;;;;;;5071086;28;20020;-42
2022/12/04 14:25:55;;;;;;;1.17;0.80;;;;;;;;;;5071101;28;20145;-42
2022/12/04 14:28:30;;;;;;;1.30;1.17;;;;;;;;;;5071248;28;20033;-41
2022/12/04 14:31:00;;;;;;;1.27;1.17;;;;;;;;;;5071274;28;20024;-41
2022/12/04 14:33:29;;;;;;;1.65;1.10;;;;;;;;;;5071135;28;20463;-41
2022/12/04 14:35:58;;;;;;;1.45;1.02;;;;;;;;;;5070887;28;20121;-42
2022/12/04 14:38:24;;;;;;;2.50;0.77;;;;;;;;;;5071118;28;20013;-42
2022/12/04 14:40:51;;;;;;;1.08;0.95;;;;;;;;;;5070945;28;20028;-41
2022/12/04 14:43:21;;;;;;;0.77;0.77;;;;;;;;;;5070983;28;20024;-42
2022/12/04 14:45:56;;;;;;;2.33;1.80;;;;;;;;;;5070955;28;20039;-41
2022/12/04 14:48:26;;;;;;;1.27;1.17;;;;;;;;;;5070974;28;20039;-41
2022/12/04 14:51:07;;;;;;;1.70;1.13;;;;;;;;;;5071131;28;20025;-41
2022/12/04 14:53:48;;;;;;;2.35;1.92;;;;;;;;;;5071050;28;20048;-42
2022/12/04 14:56:23;;;;;;;1.77;1.33;;;;;;;;;;5070871;28;20463;-42
2022/12/04 14:58:49;;;;;;;4.63;2.47;;;;;;;;;;5070768;28;20032;-41
2022/12/04 15:01:19;;;;;;;1.33;0.90;;;;;;;;;;5070839;28;20471;-41
2022/12/04 15:03:46;;;;;;;1.00;0.73;;;;;;;;;;5071184;28;20050;-41
2022/12/04 15:06:18;;;;;;;0.80;0.77;;;;;;;;;;5070671;28;20116;-41
2022/12/04 15:08:47;;;;;;;1.07;0.93;;;;;;;;;;5069571;28;20041;-42
2022/12/04 15:14:10;;;;;;;1.05;0.95;;;;;;;;;;5071039;28;20028;-41